createdAt,value
2023-02-22T00:00:46.660Z,990.96
2023-02-22T00:01:46.685Z,991.07
2023-02-22T00:02:46.672Z,990.99
2023-02-22T00:03:46.631Z,990.96
2023-02-22T00:04:46.602Z,990.95
2023-02-22T00:05:46.588Z,990.98
2023-02-22T00:06:47.520Z,990.99
2023-02-22T00:07:47.230Z,990.96
2023-02-22T00:08:46.567Z,990.94
2023-02-22T00:09:46.566Z,990.94
2023-02-22T00:10:46.538Z,990.96
2023-02-22T00:11:46.547Z,990.92
2023-02-22T00:12:46.496Z,990.87
2023-02-22T00:13:46.508Z,990.84
2023-02-22T00:14:46.499Z,990.93
2023-02-22T00:15:46.520Z,990.87
2023-02-22T00:16:47.172Z,990.86
2023-02-22T00:17:46.530Z,990.93
2023-02-22T00:18:46.471Z,990.88
2023-02-22T00:19:46.500Z,990.90
2023-02-22T00:20:46.485Z,990.82
2023-02-22T00:21:47.443Z,990.81
2023-02-22T00:22:46.421Z,990.82
2023-02-22T00:23:46.424Z,990.85
2023-02-22T00:24:47.342Z,990.80
2023-02-22T00:25:46.396Z,990.84
2023-02-22T00:26:51.099Z,990.84
2023-02-22T00:27:46.379Z,990.83
2023-02-22T00:28:46.360Z,990.85
2023-02-22T00:29:46.404Z,990.86
2023-02-22T00:30:46.354Z,990.85
2023-02-22T00:31:46.404Z,990.84
2023-02-22T00:32:46.359Z,990.83
2023-02-22T00:33:46.310Z,990.85
2023-02-22T00:34:46.323Z,990.89
2023-02-22T00:35:46.315Z,990.84
2023-02-22T00:36:46.288Z,990.81
2023-02-22T00:37:46.246Z,990.81
2023-02-22T00:38:46.256Z,990.87
2023-02-22T00:39:46.238Z,990.80
2023-02-22T00:40:46.273Z,990.85
2023-02-22T00:41:46.342Z,990.87
2023-02-22T00:42:46.207Z,990.81
2023-02-22T00:43:46.226Z,990.82
2023-02-22T00:44:46.220Z,990.85
2023-02-22T00:45:46.245Z,990.85
2023-02-22T00:46:46.175Z,990.82
2023-02-22T00:47:46.194Z,990.82
2023-02-22T00:48:46.140Z,990.82
2023-02-22T00:49:46.220Z,990.84
2023-02-22T00:50:46.131Z,990.85
2023-02-22T00:51:46.124Z,990.81
2023-02-22T00:52:46.104Z,990.82
2023-02-22T00:53:46.119Z,990.89
2023-02-22T00:54:46.090Z,990.85
2023-02-22T00:55:46.132Z,990.83
2023-02-22T00:56:56.862Z,990.80
2023-02-22T00:57:46.109Z,990.82
2023-02-22T00:58:46.046Z,990.85
2023-02-22T00:59:46.043Z,990.79
2023-02-22T01:00:46.091Z,990.80
2023-02-22T01:01:46.050Z,990.78
2023-02-22T01:02:46.013Z,990.79
2023-02-22T01:03:46.036Z,990.75
2023-02-22T01:04:46.918Z,990.77
2023-02-22T01:05:45.976Z,990.79
2023-02-22T01:06:45.944Z,990.77
2023-02-22T01:07:45.962Z,990.77
2023-02-22T01:08:45.949Z,990.75
2023-02-22T01:09:46.003Z,990.77
2023-02-22T01:10:45.936Z,990.76
2023-02-22T01:11:45.927Z,990.74
2023-02-22T01:12:45.888Z,990.73
2023-02-22T01:13:45.889Z,990.72
2023-02-22T01:14:45.889Z,990.71
2023-02-22T01:15:45.898Z,990.68
2023-02-22T01:16:45.895Z,990.72
2023-02-22T01:17:45.892Z,990.72
2023-02-22T01:18:45.843Z,990.69
2023-02-22T01:19:45.827Z,990.71
2023-02-22T01:20:45.796Z,990.68
2023-02-22T01:21:45.787Z,990.70
2023-02-22T01:22:45.779Z,990.67
2023-02-22T01:23:45.819Z,990.70
2023-02-22T01:24:45.759Z,990.67
2023-02-22T01:25:45.762Z,990.66
2023-02-22T01:26:45.747Z,990.63
2023-02-22T01:27:45.756Z,990.65
2023-02-22T01:28:45.717Z,990.60
2023-02-22T01:29:45.795Z,990.60
2023-02-22T01:30:45.791Z,990.64
2023-02-22T01:31:46.446Z,990.57
2023-02-22T01:32:45.689Z,990.61
2023-02-22T01:33:45.679Z,990.64
2023-02-22T01:34:45.682Z,990.60
2023-02-22T01:35:45.675Z,990.59
2023-02-22T01:36:45.666Z,990.59
2023-02-22T01:37:45.648Z,990.60
2023-02-22T01:38:45.616Z,990.51
2023-02-22T01:39:45.656Z,990.59
2023-02-22T01:40:45.855Z,990.52
2023-02-22T01:41:45.605Z,990.51
2023-02-22T01:42:45.583Z,990.55
2023-02-22T01:43:45.599Z,990.52
2023-02-22T01:44:45.560Z,990.55
2023-02-22T01:45:45.599Z,990.49
2023-02-22T01:46:45.544Z,990.54
2023-02-22T01:47:45.538Z,990.54
2023-02-22T01:48:45.932Z,990.47
2023-02-22T01:49:45.531Z,990.46
2023-02-22T01:50:45.484Z,990.45
2023-02-22T01:51:45.513Z,990.49
2023-02-22T01:52:45.464Z,990.47
2023-02-22T01:53:45.509Z,990.44
2023-02-22T01:54:45.463Z,990.49
2023-02-22T01:55:45.454Z,990.46
2023-02-22T01:56:45.504Z,990.42
2023-02-22T01:57:45.443Z,990.41
2023-02-22T01:58:45.404Z,990.43
2023-02-22T01:59:45.404Z,990.41
2023-02-22T02:00:45.454Z,990.40
2023-02-22T02:01:45.402Z,990.46
2023-02-22T02:02:45.365Z,990.39
2023-02-22T02:03:45.418Z,990.36
2023-02-22T02:04:45.382Z,990.39
2023-02-22T02:05:45.382Z,990.39
2023-02-22T02:06:45.325Z,990.42
2023-02-22T02:07:45.882Z,990.41
2023-02-22T02:08:45.293Z,990.35
2023-02-22T02:09:45.366Z,990.38
2023-02-22T02:10:45.274Z,990.36
2023-02-22T02:11:45.292Z,990.36
2023-02-22T02:12:45.289Z,990.38
2023-02-22T02:13:45.267Z,990.34
2023-02-22T02:14:45.245Z,990.31
2023-02-22T02:15:45.254Z,990.33
2023-02-22T02:16:45.262Z,990.31
2023-02-22T02:17:45.256Z,990.30
2023-02-22T02:18:45.218Z,990.30
2023-02-22T02:19:45.197Z,990.34
2023-02-22T02:20:45.165Z,990.30
2023-02-22T02:21:45.174Z,990.28
2023-02-22T02:22:45.145Z,990.27
2023-02-22T02:23:45.433Z,990.24
2023-02-22T02:24:45.136Z,990.20
2023-02-22T02:25:45.149Z,990.25
2023-02-22T02:26:45.219Z,990.18
2023-02-22T02:27:45.111Z,990.16
2023-02-22T02:28:45.138Z,990.19
2023-02-22T02:29:45.290Z,990.21
2023-02-22T02:30:45.078Z,990.17
2023-02-22T02:31:45.152Z,990.17
2023-02-22T02:32:45.102Z,990.12
2023-02-22T02:33:45.374Z,990.10
2023-02-22T02:34:45.044Z,990.11
2023-02-22T02:35:45.035Z,990.14
2023-02-22T02:36:45.027Z,990.13
2023-02-22T02:37:44.989Z,990.11
2023-02-22T02:38:45.057Z,990.15
2023-02-22T02:39:45.028Z,990.11
2023-02-22T02:40:45.020Z,990.08
2023-02-22T02:41:44.970Z,990.08
2023-02-22T02:42:44.976Z,990.12
2023-02-22T02:43:44.927Z,990.08
2023-02-22T02:44:44.960Z,990.05
2023-02-22T02:45:45.377Z,990.09
2023-02-22T02:46:44.905Z,990.08
2023-02-22T02:47:44.914Z,990.07
2023-02-22T02:48:44.908Z,990.03
2023-02-22T02:49:44.895Z,990.04
2023-02-22T02:50:44.891Z,990.03
2023-02-22T02:51:44.877Z,990.03
2023-02-22T02:52:44.862Z,990.06
2023-02-22T02:53:44.823Z,990.05
2023-02-22T02:54:46.498Z,990.04
2023-02-22T02:55:45.779Z,990.05
2023-02-22T02:56:44.940Z,990.01
2023-02-22T02:57:44.796Z,990.00
2023-02-22T02:58:44.817Z,989.99
2023-02-22T02:59:44.756Z,989.94
2023-02-22T03:00:44.788Z,989.91
2023-02-22T03:01:44.904Z,989.94
2023-02-22T03:02:44.756Z,989.92
2023-02-22T03:03:44.744Z,989.91
2023-02-22T03:04:44.749Z,989.94
2023-02-22T03:05:44.929Z,989.93
2023-02-22T03:06:44.720Z,989.88
2023-02-22T03:07:44.800Z,989.86
2023-02-22T03:08:44.680Z,989.93
2023-02-22T03:09:44.669Z,989.90
2023-02-22T03:10:44.699Z,989.89
2023-02-22T03:11:44.669Z,989.92
2023-02-22T03:12:44.639Z,989.95
2023-02-22T03:13:44.734Z,989.92
2023-02-22T03:14:44.618Z,989.93
2023-02-22T03:15:44.609Z,989.90
2023-02-22T03:16:44.696Z,989.91
2023-02-22T03:17:44.598Z,989.90
2023-02-22T03:18:44.580Z,989.91
2023-02-22T03:19:44.612Z,989.90
2023-02-22T03:20:45.547Z,989.92
2023-02-22T03:21:44.546Z,989.88
2023-02-22T03:22:44.543Z,989.90
2023-02-22T03:23:44.546Z,989.94
2023-02-22T03:24:44.531Z,989.90
2023-02-22T03:25:44.503Z,989.86
2023-02-22T03:26:44.576Z,989.85
2023-02-22T03:27:44.486Z,989.88
2023-02-22T03:28:44.914Z,989.82
2023-02-22T03:29:44.460Z,989.85
2023-02-22T03:30:44.441Z,989.84
2023-02-22T03:31:45.065Z,989.88
2023-02-22T03:32:44.475Z,989.84
2023-02-22T03:33:44.425Z,989.83
2023-02-22T03:34:44.412Z,989.83
2023-02-22T03:35:44.430Z,989.83
2023-02-22T03:36:44.394Z,989.78
2023-02-22T03:37:46.074Z,989.79
2023-02-22T03:38:44.375Z,989.82
2023-02-22T03:39:44.354Z,989.78
2023-02-22T03:40:44.354Z,989.77
2023-02-22T03:41:44.359Z,989.78
2023-02-22T03:42:44.324Z,989.75
2023-02-22T03:43:44.332Z,989.72
2023-02-22T03:44:44.315Z,989.76
2023-02-22T03:45:44.283Z,989.76
2023-02-22T03:46:44.284Z,989.76
2023-02-22T03:47:44.293Z,989.79
2023-02-22T03:48:44.403Z,989.71
2023-02-22T03:49:44.552Z,989.81
2023-02-22T03:50:44.237Z,989.74
2023-02-22T03:51:44.225Z,989.74
2023-02-22T03:52:44.238Z,989.72
2023-02-22T03:53:44.235Z,989.75
2023-02-22T03:54:44.205Z,989.74
2023-02-22T03:55:44.179Z,989.74
2023-02-22T03:56:44.220Z,989.79
2023-02-22T03:57:44.186Z,989.74
2023-02-22T03:58:44.220Z,989.77
2023-02-22T03:59:44.281Z,989.74
2023-02-22T04:00:44.173Z,989.74
2023-02-22T04:01:44.116Z,989.77
2023-02-22T04:02:44.150Z,989.77
2023-02-22T04:03:44.087Z,989.74
2023-02-22T04:04:44.464Z,989.76
2023-02-22T04:05:44.119Z,989.75
2023-02-22T04:06:44.086Z,989.75
2023-02-22T04:08:40.044Z,989.80
2023-02-22T04:09:40.051Z,989.75
2023-02-22T04:10:40.042Z,989.75
2023-02-22T04:11:40.014Z,989.77
2023-02-22T04:12:39.994Z,989.77
2023-02-22T04:13:39.994Z,989.84
2023-02-22T04:14:39.985Z,989.77
2023-02-22T04:15:40.013Z,989.82
2023-02-22T04:16:39.949Z,989.80
2023-02-22T04:17:39.947Z,989.77
2023-02-22T04:18:39.953Z,989.83
2023-02-22T04:19:39.929Z,989.78
2023-02-22T04:20:39.911Z,989.82
2023-02-22T04:21:39.924Z,989.79
2023-02-22T04:22:39.886Z,989.80
2023-02-22T04:23:39.913Z,989.77
2023-02-22T04:24:39.882Z,989.74
2023-02-22T04:25:39.920Z,989.74
2023-02-22T04:26:39.882Z,989.73
2023-02-22T04:27:39.862Z,989.72
2023-02-22T04:28:39.844Z,989.75
2023-02-22T04:29:39.820Z,989.71
2023-02-22T04:30:39.826Z,989.69
2023-02-22T04:31:39.853Z,989.70
2023-02-22T04:32:39.781Z,989.74
2023-02-22T04:33:39.782Z,989.67
2023-02-22T04:34:39.751Z,989.65
2023-02-22T04:35:39.776Z,989.65
2023-02-22T04:36:39.912Z,989.67
2023-02-22T04:37:39.782Z,989.64
2023-02-22T04:38:39.719Z,989.72
2023-02-22T04:39:39.790Z,989.75
2023-02-22T04:40:39.710Z,989.73
2023-02-22T04:41:39.681Z,989.73
2023-02-22T04:42:39.713Z,989.72
2023-02-22T04:43:39.682Z,989.71
2023-02-22T04:44:39.650Z,989.76
2023-02-22T04:45:39.687Z,989.73
2023-02-22T04:46:39.693Z,989.71
2023-02-22T04:47:39.679Z,989.69
2023-02-22T04:48:39.613Z,989.67
2023-02-22T04:49:39.662Z,989.71
2023-02-22T04:50:39.616Z,989.70
2023-02-22T04:51:39.602Z,989.69
2023-02-22T04:52:39.583Z,989.68
2023-02-22T04:53:39.601Z,989.67
2023-02-22T04:54:39.551Z,989.70
2023-02-22T04:55:39.565Z,989.68
2023-02-22T04:56:39.520Z,989.72
2023-02-22T04:57:39.544Z,989.68
2023-02-22T04:58:39.515Z,989.64
2023-02-22T04:59:39.522Z,989.65
2023-02-22T05:00:39.475Z,989.65
2023-02-22T05:01:39.541Z,989.67
2023-02-22T05:02:39.521Z,989.62
2023-02-22T05:03:39.483Z,989.59
2023-02-22T05:04:39.458Z,989.61
2023-02-22T05:05:39.464Z,989.57
2023-02-22T05:06:39.471Z,989.58
2023-02-22T05:07:39.443Z,989.62
2023-02-22T05:08:39.396Z,989.60
2023-02-22T05:09:39.412Z,989.62
2023-02-22T05:10:39.391Z,989.55
2023-02-22T05:11:39.378Z,989.53
2023-02-22T05:12:39.341Z,989.58
2023-02-22T05:13:39.357Z,989.55
2023-02-22T05:14:39.360Z,989.57
2023-02-22T05:15:39.351Z,989.55
2023-02-22T05:16:39.309Z,989.49
2023-02-22T05:17:39.351Z,989.50
2023-02-22T05:18:39.321Z,989.56
2023-02-22T05:19:39.304Z,989.51
2023-02-22T05:20:39.272Z,989.49
2023-02-22T05:21:39.272Z,989.49
2023-02-22T05:22:39.271Z,989.51
2023-02-22T05:23:39.260Z,989.50
2023-02-22T05:24:39.288Z,989.51
2023-02-22T05:25:39.233Z,989.51
2023-02-22T05:26:39.236Z,989.50
2023-02-22T05:27:39.211Z,989.52
2023-02-22T05:28:39.170Z,989.49
2023-02-22T05:29:39.203Z,989.46
2023-02-22T05:30:39.188Z,989.46
2023-02-22T05:31:39.284Z,989.44
2023-02-22T05:32:39.132Z,989.47
2023-02-22T05:33:39.158Z,989.39
2023-02-22T05:34:39.132Z,989.42
2023-02-22T05:35:39.123Z,989.41
2023-02-22T05:36:39.132Z,989.41
2023-02-22T05:37:39.132Z,989.39
2023-02-22T05:38:39.083Z,989.39
2023-02-22T05:39:39.093Z,989.47
2023-02-22T05:40:39.063Z,989.42
2023-02-22T05:41:39.078Z,989.43
2023-02-22T05:42:39.102Z,989.37
2023-02-22T05:43:39.034Z,989.41
2023-02-22T05:44:39.012Z,989.47
2023-02-22T05:45:39.029Z,989.44
2023-02-22T05:46:39.142Z,989.46
2023-02-22T05:47:39.003Z,989.41
2023-02-22T05:48:39.009Z,989.42
2023-02-22T05:49:38.974Z,989.39
2023-02-22T05:50:38.963Z,989.43
2023-02-22T05:51:38.952Z,989.41
2023-02-22T05:52:38.953Z,989.42
2023-02-22T05:53:38.949Z,989.42
2023-02-22T05:54:38.922Z,989.42
2023-02-22T05:55:38.921Z,989.39
2023-02-22T05:56:38.881Z,989.43
2023-02-22T05:57:38.902Z,989.41
2023-02-22T05:58:38.875Z,989.37
2023-02-22T05:59:38.880Z,989.39
2023-02-22T06:00:38.924Z,989.42
2023-02-22T06:01:38.879Z,989.41
2023-02-22T06:02:38.832Z,989.44
2023-02-22T06:03:38.844Z,989.46
2023-02-22T06:04:38.826Z,989.39
2023-02-22T06:05:38.894Z,989.46
2023-02-22T06:06:38.786Z,989.42
2023-02-22T06:07:38.808Z,989.39
2023-02-22T06:08:38.763Z,989.48
2023-02-22T06:09:38.794Z,989.49
2023-02-22T06:10:38.754Z,989.40
2023-02-22T06:11:38.705Z,989.38
2023-02-22T06:12:38.665Z,989.38
2023-02-22T06:13:38.772Z,989.40
2023-02-22T06:14:38.712Z,989.45
2023-02-22T06:15:38.749Z,989.41
2023-02-22T06:16:38.758Z,989.43
2023-02-22T06:17:38.698Z,989.42
2023-02-22T06:18:38.671Z,989.41
2023-02-22T06:19:38.691Z,989.45
2023-02-22T06:20:38.640Z,989.47
2023-02-22T06:21:38.661Z,989.48
2023-02-22T06:22:38.608Z,989.44
2023-02-22T06:23:38.616Z,989.48
2023-02-22T06:24:38.620Z,989.44
2023-02-22T06:25:38.669Z,989.50
2023-02-22T06:26:38.990Z,989.50
2023-02-22T06:27:38.578Z,989.49
2023-02-22T06:28:38.564Z,989.46
2023-02-22T06:29:38.570Z,989.43
2023-02-22T06:30:38.649Z,989.48
2023-02-22T06:31:38.607Z,989.46
2023-02-22T06:32:38.529Z,989.48
2023-02-22T06:33:38.569Z,989.45
2023-02-22T06:34:38.509Z,989.49
2023-02-22T06:35:38.500Z,989.46
2023-02-22T06:36:38.493Z,989.48
2023-02-22T06:37:38.495Z,989.48
2023-02-22T06:38:38.456Z,989.44
2023-02-22T06:39:38.452Z,989.45
2023-02-22T06:40:38.447Z,989.45
2023-02-22T06:41:38.988Z,989.44
2023-02-22T06:42:38.411Z,989.47
2023-02-22T06:43:38.424Z,989.44
2023-02-22T06:44:38.409Z,989.46
2023-02-22T06:45:38.421Z,989.46
2023-02-22T06:46:38.348Z,989.47
2023-02-22T06:47:38.380Z,989.50
2023-02-22T06:48:38.309Z,989.52
2023-02-22T06:49:38.307Z,989.59
2023-02-22T06:50:38.277Z,989.56
2023-02-22T06:51:38.286Z,989.52
2023-02-22T06:52:38.267Z,989.59
2023-02-22T06:53:38.300Z,989.58
2023-02-22T06:54:38.300Z,989.53
2023-02-22T06:55:38.250Z,989.57
2023-02-22T06:56:38.249Z,989.61
2023-02-22T06:57:38.272Z,989.58
2023-02-22T06:58:38.199Z,989.59
2023-02-22T06:59:38.473Z,989.61
2023-02-22T07:00:38.253Z,989.62
2023-02-22T07:01:38.219Z,989.61
2023-02-22T07:02:38.148Z,989.55
2023-02-22T07:03:38.174Z,989.59
2023-02-22T07:04:38.143Z,989.60
2023-02-22T07:05:38.149Z,989.63
2023-02-22T07:06:38.160Z,989.59
2023-02-22T07:07:38.129Z,989.60
2023-02-22T07:08:38.101Z,989.61
2023-02-22T07:09:38.116Z,989.58
2023-02-22T07:10:38.082Z,989.55
2023-02-22T07:11:38.118Z,989.56
2023-02-22T07:12:38.116Z,989.61
2023-02-22T07:13:38.074Z,989.59
2023-02-22T07:14:38.044Z,989.58
2023-02-22T07:15:39.799Z,989.57
2023-02-22T07:16:38.098Z,989.56
2023-02-22T07:17:38.054Z,989.57
2023-02-22T07:18:37.995Z,989.56
2023-02-22T07:19:38.016Z,989.58
2023-02-22T07:20:37.974Z,989.55
2023-02-22T07:21:37.999Z,989.54
2023-02-22T07:22:37.949Z,989.54
2023-02-22T07:23:37.973Z,989.56
2023-02-22T07:24:37.946Z,989.56
2023-02-22T07:25:37.962Z,989.57
2023-02-22T07:26:38.006Z,989.54
2023-02-22T07:27:37.991Z,989.63
2023-02-22T07:28:37.913Z,989.58
2023-02-22T07:29:37.906Z,989.58
2023-02-22T07:30:37.991Z,989.58
2023-02-22T07:31:39.037Z,989.56
2023-02-22T07:32:37.913Z,989.56
2023-02-22T07:33:37.845Z,989.57
2023-02-22T07:34:37.837Z,989.59
2023-02-22T07:35:37.842Z,989.63
2023-02-22T07:36:37.808Z,989.57
2023-02-22T07:37:37.827Z,989.58
2023-02-22T07:38:37.789Z,989.55
2023-02-22T07:39:37.797Z,989.54
2023-02-22T07:40:37.785Z,989.57
2023-02-22T07:41:37.777Z,989.56
2023-02-22T07:42:37.758Z,989.56
2023-02-22T07:43:37.796Z,989.61
2023-02-22T07:44:37.737Z,989.62
2023-02-22T07:45:37.779Z,989.57
2023-02-22T07:46:37.713Z,989.52
2023-02-22T07:47:37.714Z,989.56
2023-02-22T07:48:37.684Z,989.60
2023-02-22T07:49:37.719Z,989.54
2023-02-22T07:50:37.706Z,989.53
2023-02-22T07:51:37.667Z,989.54
2023-02-22T07:52:37.647Z,989.53
2023-02-22T07:53:37.638Z,989.58
2023-02-22T07:54:37.991Z,989.63
2023-02-22T07:55:37.617Z,989.56
2023-02-22T07:56:37.697Z,989.59
2023-02-22T07:57:37.586Z,989.54
2023-02-22T07:58:37.607Z,989.53
2023-02-22T07:59:37.577Z,989.57
2023-02-22T08:00:37.585Z,989.53
2023-02-22T08:01:37.638Z,989.54
2023-02-22T08:02:37.612Z,989.57
2023-02-22T08:03:37.569Z,989.52
2023-02-22T08:04:37.536Z,989.53
2023-02-22T08:05:37.537Z,989.52
2023-02-22T08:06:37.545Z,989.51
2023-02-22T08:07:37.538Z,989.56
2023-02-22T08:08:37.499Z,989.52
2023-02-22T08:09:37.487Z,989.53
2023-02-22T08:10:37.490Z,989.57
2023-02-22T08:11:38.467Z,989.50
2023-02-22T08:12:37.462Z,989.52
2023-02-22T08:13:37.457Z,989.50
2023-02-22T08:14:37.448Z,989.52
2023-02-22T08:15:37.405Z,989.55
2023-02-22T08:16:37.478Z,989.57
2023-02-22T08:17:37.386Z,989.49
2023-02-22T08:18:37.386Z,989.51
2023-02-22T08:19:38.317Z,989.46
2023-02-22T08:20:37.402Z,989.47
2023-02-22T08:21:37.366Z,989.50
2023-02-22T08:22:37.418Z,989.51
2023-02-22T08:23:38.318Z,989.52
2023-02-22T08:24:37.349Z,989.55
2023-02-22T08:25:37.324Z,989.51
2023-02-22T08:26:37.427Z,989.53
2023-02-22T08:27:37.278Z,989.55
2023-02-22T08:28:37.313Z,989.53
2023-02-22T08:29:37.272Z,989.54
2023-02-22T08:30:40.055Z,989.55
2023-02-22T08:31:37.264Z,989.56
2023-02-22T08:32:37.325Z,989.54
2023-02-22T08:33:37.246Z,989.50
2023-02-22T08:34:37.347Z,989.54
2023-02-22T08:35:37.201Z,989.57
2023-02-22T08:36:37.222Z,989.54
2023-02-22T08:37:37.229Z,989.53
2023-02-22T08:38:37.228Z,989.51
2023-02-22T08:39:37.228Z,989.53
2023-02-22T08:40:37.209Z,989.54
2023-02-22T08:41:37.178Z,989.56
2023-02-22T08:42:37.159Z,989.55
2023-02-22T08:43:37.128Z,989.53
2023-02-22T08:44:37.160Z,989.57
2023-02-22T08:45:38.076Z,989.53
2023-02-22T08:46:37.145Z,989.55
2023-02-22T08:47:37.104Z,989.52
2023-02-22T08:48:37.108Z,989.54
2023-02-22T08:49:37.063Z,989.50
2023-02-22T08:50:37.064Z,989.51
2023-02-22T08:51:37.041Z,989.46
2023-02-22T08:52:37.054Z,989.52
2023-02-22T08:53:37.055Z,989.51
2023-02-22T08:54:37.712Z,989.54
2023-02-22T08:55:37.007Z,989.52
2023-02-22T08:56:37.037Z,989.52
2023-02-22T08:57:36.974Z,989.50
2023-02-22T08:58:37.001Z,989.49
2023-02-22T08:59:36.985Z,989.47
2023-02-22T09:00:36.973Z,989.50
2023-02-22T09:01:37.202Z,989.48
2023-02-22T09:02:36.943Z,989.50
2023-02-22T09:03:36.966Z,989.45
2023-02-22T09:04:36.926Z,989.44
2023-02-22T09:05:36.927Z,989.45
2023-02-22T09:06:36.914Z,989.45
2023-02-22T09:07:36.882Z,989.44
2023-02-22T09:09:28.198Z,989.44
2023-02-22T09:10:28.141Z,989.47
2023-02-22T09:11:28.129Z,989.45
2023-02-22T09:12:28.082Z,989.46
2023-02-22T09:13:28.105Z,989.45
2023-02-22T09:14:28.091Z,989.42
2023-02-22T09:15:28.067Z,989.45
2023-02-22T09:16:28.072Z,989.42
2023-02-22T09:17:28.078Z,989.44
2023-02-22T09:18:35.961Z,989.42
2023-02-22T09:19:29.044Z,989.44
2023-02-22T09:20:28.048Z,989.49
2023-02-22T09:21:28.013Z,989.41
2023-02-22T09:22:28.012Z,989.44
2023-02-22T09:23:27.999Z,989.47
2023-02-22T09:24:27.959Z,989.44
2023-02-22T09:25:28.453Z,989.42
2023-02-22T09:26:32.689Z,989.42
2023-02-22T09:27:27.981Z,989.41
2023-02-22T09:28:29.252Z,989.43
2023-02-22T09:29:27.936Z,989.41
2023-02-22T09:30:27.982Z,989.42
2023-02-22T09:31:28.008Z,989.47
2023-02-22T09:32:28.601Z,989.45
2023-02-22T09:33:27.911Z,989.39
2023-02-22T09:34:27.877Z,989.43
2023-02-22T09:35:27.918Z,989.40
2023-02-22T09:36:27.854Z,989.43
2023-02-22T09:37:27.844Z,989.35
2023-02-22T09:38:28.853Z,989.30
2023-02-22T09:39:27.929Z,989.31
2023-02-22T09:40:27.821Z,989.33
2023-02-22T09:41:27.835Z,989.33
2023-02-22T09:42:27.808Z,989.27
2023-02-22T09:43:27.784Z,989.29
2023-02-22T09:44:27.982Z,989.35
2023-02-22T09:45:27.818Z,989.27
2023-02-22T09:46:27.760Z,989.27
2023-02-22T09:47:27.749Z,989.27
2023-02-22T09:48:27.719Z,989.23
2023-02-22T09:49:27.780Z,989.21
2023-02-22T09:50:27.703Z,989.21
2023-02-22T09:51:27.711Z,989.18
2023-02-22T09:52:27.692Z,989.17
2023-02-22T09:53:27.736Z,989.18
2023-02-22T09:54:28.003Z,989.16
2023-02-22T09:55:27.684Z,989.11
2023-02-22T09:56:38.573Z,989.12
2023-02-22T09:57:27.630Z,989.18
2023-02-22T09:58:27.628Z,989.12
2023-02-22T09:59:27.671Z,989.13
2023-02-22T10:00:27.585Z,989.13
2023-02-22T10:01:27.627Z,989.10
2023-02-22T10:02:27.623Z,989.09
2023-02-22T10:03:27.634Z,989.09
2023-02-22T10:04:27.646Z,989.07
2023-02-22T10:05:27.681Z,989.08
2023-02-22T10:06:27.531Z,989.11
2023-02-22T10:07:27.521Z,989.02
2023-02-22T10:08:30.203Z,989.03
2023-02-22T10:09:27.514Z,989.07
2023-02-22T10:10:27.492Z,989.04
2023-02-22T10:11:27.540Z,989.06
2023-02-22T10:12:27.461Z,989.07
2023-02-22T10:13:27.481Z,989.04
2023-02-22T10:14:27.450Z,989.01
2023-02-22T10:15:27.483Z,989.01
2023-02-22T10:16:27.521Z,989.01
2023-02-22T10:17:27.432Z,989.04
2023-02-22T10:18:27.394Z,989.08
2023-02-22T10:19:28.383Z,989.07
2023-02-22T10:20:27.405Z,989.03
2023-02-22T10:21:27.426Z,989.04
2023-02-22T10:22:27.406Z,989.03
2023-02-22T10:23:27.426Z,989.02
2023-02-22T10:24:27.352Z,989.03
2023-02-22T10:25:27.366Z,989.03
2023-02-22T10:26:27.442Z,989.05
2023-02-22T10:27:28.310Z,989.02
2023-02-22T10:28:27.295Z,989.01
2023-02-22T10:29:27.336Z,989.04
2023-02-22T10:30:27.441Z,989.00
2023-02-22T10:31:27.561Z,988.96
2023-02-22T10:32:27.284Z,989.00
2023-02-22T10:33:27.289Z,989.01
2023-02-22T10:34:27.258Z,989.01
2023-02-22T10:35:27.253Z,988.99
2023-02-22T10:36:27.534Z,988.95
2023-02-22T10:37:27.328Z,988.93
2023-02-22T10:38:27.221Z,988.93
2023-02-22T10:39:27.254Z,988.96
2023-02-22T10:40:27.187Z,988.90
2023-02-22T10:41:27.232Z,988.95
2023-02-22T10:42:27.225Z,988.87
2023-02-22T10:43:27.167Z,988.90
2023-02-22T10:44:27.139Z,988.90
2023-02-22T10:45:27.174Z,988.92
2023-02-22T10:46:27.162Z,988.91
2023-02-22T10:47:27.500Z,988.91
2023-02-22T10:48:27.128Z,988.86
2023-02-22T10:49:27.121Z,988.87
2023-02-22T10:50:27.087Z,988.83
2023-02-22T10:51:28.001Z,988.84
2023-02-22T10:52:27.147Z,988.82
2023-02-22T10:53:27.054Z,988.86
2023-02-22T10:54:27.140Z,988.82
2023-02-22T10:55:27.081Z,988.88
2023-02-22T10:56:27.028Z,988.85
2023-02-22T10:57:27.104Z,988.86
2023-02-22T10:58:27.031Z,988.84
2023-02-22T10:59:27.049Z,988.83
2023-02-22T11:00:26.995Z,988.84
2023-02-22T11:01:29.655Z,988.83
2023-02-22T11:02:27.006Z,988.89
2023-02-22T11:03:27.064Z,988.80
2023-02-22T11:04:26.963Z,988.79
2023-02-22T11:05:26.937Z,988.76
2023-02-22T11:06:26.923Z,988.79
2023-02-22T11:07:26.903Z,988.73
2023-02-22T11:08:27.116Z,988.74
2023-02-22T11:09:27.859Z,988.77
2023-02-22T11:10:26.918Z,988.75
2023-02-22T11:11:26.877Z,988.71
2023-02-22T11:12:26.872Z,988.68
2023-02-22T11:13:26.867Z,988.68
2023-02-22T11:14:26.887Z,988.66
2023-02-22T11:15:26.839Z,988.67
2023-02-22T11:16:27.154Z,988.66
2023-02-22T11:17:26.801Z,988.67
2023-02-22T11:18:26.808Z,988.63
2023-02-22T11:19:26.801Z,988.60
2023-02-22T11:20:26.817Z,988.63
2023-02-22T11:21:26.760Z,988.63
2023-02-22T11:22:26.772Z,988.59
2023-02-22T11:23:26.740Z,988.59
2023-02-22T11:24:30.402Z,988.56
2023-02-22T11:25:27.771Z,988.54
2023-02-22T11:26:26.753Z,988.54
2023-02-22T11:27:26.691Z,988.54
2023-02-22T11:28:26.740Z,988.51
2023-02-22T11:29:26.747Z,988.48
2023-02-22T11:30:26.835Z,988.52
2023-02-22T11:31:26.695Z,988.45
2023-02-22T11:32:26.729Z,988.46
2023-02-22T11:33:26.652Z,988.46
2023-02-22T11:34:26.642Z,988.41
2023-02-22T11:35:26.612Z,988.40
2023-02-22T11:36:26.622Z,988.37
2023-02-22T11:37:26.629Z,988.35
2023-02-22T11:38:26.618Z,988.36
2023-02-22T11:39:27.625Z,988.37
2023-02-22T11:40:26.561Z,988.33
2023-02-22T11:41:26.543Z,988.34
2023-02-22T11:42:26.539Z,988.31
2023-02-22T11:43:26.549Z,988.30
2023-02-22T11:44:26.544Z,988.32
2023-02-22T11:45:26.520Z,988.29
2023-02-22T11:46:26.591Z,988.27
2023-02-22T11:47:26.471Z,988.23
2023-02-22T11:48:26.516Z,988.23
2023-02-22T11:49:26.488Z,988.22
2023-02-22T11:50:26.468Z,988.18
2023-02-22T11:51:26.437Z,988.20
2023-02-22T11:52:27.300Z,988.20
2023-02-22T11:53:26.448Z,988.19
2023-02-22T11:54:26.419Z,988.18
2023-02-22T11:55:41.860Z,988.18
2023-02-22T11:56:37.182Z,988.16
2023-02-22T11:57:27.382Z,988.16
2023-02-22T11:58:26.385Z,988.12
2023-02-22T11:59:26.381Z,988.14
2023-02-22T12:00:26.442Z,988.08
2023-02-22T12:01:26.428Z,988.07
2023-02-22T12:02:26.360Z,988.06
2023-02-22T12:03:28.578Z,988.04
2023-02-22T12:04:26.382Z,988.05
2023-02-22T12:05:26.314Z,988.10
2023-02-22T12:06:26.323Z,988.04
2023-02-22T12:07:26.288Z,988.03
2023-02-22T12:08:26.283Z,988.03
2023-02-22T12:09:26.253Z,987.97
2023-02-22T12:10:26.296Z,988.00
2023-02-22T12:11:26.226Z,988.00
2023-02-22T12:12:26.259Z,987.97
2023-02-22T12:13:26.242Z,987.96
2023-02-22T12:14:26.224Z,987.92
2023-02-22T12:15:26.186Z,988.03
2023-02-22T12:16:26.211Z,987.97
2023-02-22T12:17:26.166Z,987.92
2023-02-22T12:18:26.166Z,987.88
2023-02-22T12:19:26.187Z,987.96
2023-02-22T12:20:26.155Z,987.90
2023-02-22T12:21:26.133Z,987.88
2023-02-22T12:22:26.128Z,987.83
2023-02-22T12:23:26.098Z,987.84
2023-02-22T12:24:26.153Z,987.81
2023-02-22T12:25:26.096Z,987.82
2023-02-22T12:26:30.804Z,987.77
2023-02-22T12:27:26.143Z,987.77
2023-02-22T12:28:26.133Z,987.72
2023-02-22T12:29:26.038Z,987.73
2023-02-22T12:30:26.114Z,987.72